Time;durP1;ratioP1;P1;durP2;ratioP2;P2;SDS_P1;SDS_P2;PMS_P1;PMS_P2;Temp;Humidity;BMP_temperature;BMP_pressure;BME280_temperature;BME280_humidity;BME280_pressure;Samples;Min_cycle;Max_cycle;Signal;HPM_P1;HPM_P2
2023/12/31 00:01:50;;;;;;;1999.90;999.90;;;8.70;99.90;;;;;;5057135;28;20032;-84
2023/12/31 00:04:15;;;;;;;1999.90;999.90;;;8.00;99.90;;;;;;5056498;28;20067;-84
2023/12/31 00:06:41;;;;;;;1999.90;999.90;;;8.10;99.90;;;;;;5073390;28;20068;-84
2023/12/31 00:09:06;;;;;;;1999.90;999.90;;;7.90;99.90;;;;;;5056834;28;20041;-83
2023/12/31 00:11:32;;;;;;;1999.90;999.90;;;7.80;99.90;;;;;;5073182;28;20044;-84
2023/12/31 00:13:57;;;;;;;1999.90;999.90;;;7.80;99.90;;;;;;5072977;28;20112;-84
2023/12/31 00:16:23;;;;;;;1999.90;999.90;;;7.80;99.90;;;;;;5072218;28;20040;-84
2023/12/31 00:18:49;;;;;;;1999.90;999.90;;;7.80;99.90;;;;;;5056932;28;20048;-84
2023/12/31 00:21:14;;;;;;;1999.90;999.90;;;7.80;99.90;;;;;;5056606;28;20036;-84
2023/12/31 00:23:40;;;;;;;1999.90;999.90;;;7.80;99.90;;;;;;5055862;28;20488;-84
2023/12/31 00:26:05;;;;;;;1999.90;999.90;;;7.90;99.90;;;;;;5072267;28;20079;-84
2023/12/31 00:28:31;;;;;;;1999.90;999.90;;;8.70;99.90;;;;;;5055330;28;20040;-84
2023/12/31 00:30:57;;;;;;;1999.90;999.90;;;7.90;99.90;;;;;;5055875;28;20037;-84
2023/12/31 00:33:22;;;;;;;1999.90;999.90;;;7.90;99.90;;;;;;5055698;28;20159;-84
2023/12/31 00:35:48;;;;;;;1999.90;999.90;;;8.70;99.90;;;;;;5056340;28;20063;-84
2023/12/31 00:38:13;;;;;;;1999.90;999.90;;;8.80;99.90;;;;;;5072828;28;20050;-84
2023/12/31 00:40:39;;;;;;;1999.90;999.90;;;8.20;99.90;;;;;;5055768;28;20527;-84
2023/12/31 00:43:05;;;;;;;1999.90;999.90;;;8.00;99.90;;;;;;5057202;28;20024;-84
2023/12/31 00:45:30;;;;;;;1999.90;999.90;;;8.00;99.90;;;;;;5054186;28;20044;-84
2023/12/31 00:47:56;;;;;;;1999.90;999.90;;;8.90;99.90;;;;;;5056048;28;20043;-84
2023/12/31 00:50:21;;;;;;;1999.90;999.90;;;8.70;99.90;;;;;;5072467;28;20036;-84
2023/12/31 00:52:47;;;;;;;1999.90;999.90;;;8.00;99.90;;;;;;5072561;28;20055;-84
2023/12/31 00:55:13;;;;;;;1999.90;999.90;;;8.40;99.90;;;;;;5072340;28;20040;-84
2023/12/31 00:57:38;;;;;;;1999.90;999.90;;;8.00;99.90;;;;;;5055519;28;20076;-84
2023/12/31 01:00:05;;;;;;;1999.90;999.90;;;8.00;99.90;;;;;;5055175;28;20566;-84
2023/12/31 01:02:31;;;;;;;1999.90;999.90;;;7.90;99.90;;;;;;5056022;28;20102;-84
2023/12/31 01:04:56;;;;;;;1999.90;999.90;;;8.40;99.90;;;;;;5056217;28;20496;-85
2023/12/31 01:07:22;;;;;;;1999.90;999.90;;;8.00;99.90;;;;;;5055322;28;20036;-84
2023/12/31 01:09:48;;;;;;;1999.90;999.90;;;8.10;99.90;;;;;;5056123;28;20109;-84
2023/12/31 01:12:14;;;;;;;1999.90;999.90;;;8.30;99.90;;;;;;5057020;28;20043;-84
2023/12/31 01:14:40;;;;;;;1999.90;999.90;;;7.90;99.90;;;;;;5055724;28;20119;-84
2023/12/31 01:17:05;;;;;;;1999.90;999.90;;;7.90;99.90;;;;;;5064781;28;20558;-84
2023/12/31 01:19:31;;;;;;;1999.90;999.90;;;7.90;99.90;;;;;;5056672;28;20037;-84
2023/12/31 01:21:57;;;;;;;1999.90;999.90;;;7.90;99.90;;;;;;5065964;28;20405;-84
2023/12/31 01:24:23;;;;;;;1999.90;999.90;;;7.70;99.90;;;;;;5059466;28;20039;-84
2023/12/31 01:26:49;;;;;;;1999.90;999.90;;;7.90;99.90;;;;;;5072239;28;20036;-84
2023/12/31 01:29:14;;;;;;;1999.90;999.90;;;7.90;99.90;;;;;;5070721;28;20048;-84
2023/12/31 01:31:40;;;;;;;1999.90;999.90;;;7.90;99.90;;;;;;5053849;28;20051;-84
2023/12/31 01:34:06;;;;;;;1999.90;999.90;;;8.30;99.90;;;;;;5054063;28;20078;-84
2023/12/31 01:36:31;;;;;;;1999.90;999.90;;;7.80;99.90;;;;;;5053740;28;20047;-84
2023/12/31 01:38:58;;;;;;;1999.90;999.90;;;8.10;99.90;;;;;;5054201;28;20440;-84
2023/12/31 01:41:23;;;;;;;1999.90;999.90;;;7.80;99.90;;;;;;5053990;28;20036;-84
2023/12/31 01:43:49;;;;;;;1999.90;999.90;;;8.20;99.90;;;;;;5070607;28;20043;-84
2023/12/31 01:46:27;;;;;;;1999.90;999.90;;;7.70;99.90;;;;;;5053974;28;20040;-84
2023/12/31 01:48:54;;;;;;;1999.90;999.90;;;7.60;99.90;;;;;;5071655;28;20045;-84
2023/12/31 01:51:20;;;;;;;1999.90;999.90;;;8.40;99.90;;;;;;5054449;28;20028;-84
2023/12/31 01:53:46;;;;;;;1999.90;999.90;;;8.10;99.90;;;;;;5070996;28;20091;-84
2023/12/31 01:56:11;;;;;;;1999.90;999.90;;;7.60;99.90;;;;;;5053965;28;20115;-83
2023/12/31 01:58:37;;;;;;;1999.90;999.90;;;7.60;99.90;;;;;;5053353;28;20152;-84
2023/12/31 02:01:05;;;;;;;1999.90;999.90;;;7.90;99.90;;;;;;5070953;28;20036;-84
2023/12/31 02:03:33;;;;;;;1999.90;999.90;;;7.60;99.90;;;;;;5054195;28;20035;-84
2023/12/31 02:05:59;;;;;;;1999.90;999.90;;;7.60;99.90;;;;;;5069409;28;20098;-84
2023/12/31 02:08:24;;;;;;;1999.90;999.90;;;7.80;99.90;;;;;;5053568;28;20408;-84
2023/12/31 02:10:51;;;;;;;1999.90;999.90;;;7.70;99.90;;;;;;5053579;28;20037;-84
2023/12/31 02:13:17;;;;;;;1999.90;999.90;;;8.20;99.90;;;;;;5054406;28;20048;-84
2023/12/31 02:15:43;;;;;;;1999.90;999.90;;;7.60;99.90;;;;;;5054443;28;20037;-83
2023/12/31 02:18:08;;;;;;;1999.90;999.90;;;7.60;99.90;;;;;;5053172;28;20033;-84
2023/12/31 02:20:34;;;;;;;1999.90;999.90;;;7.60;99.90;;;;;;5053139;28;20036;-84
2023/12/31 02:23:00;;;;;;;1999.90;999.90;;;8.60;99.90;;;;;;5053616;28;20047;-84
2023/12/31 02:25:28;;;;;;;1999.90;999.90;;;8.10;99.90;;;;;;5053189;28;20052;-84
2023/12/31 02:27:55;;;;;;;1999.90;999.90;;;7.90;99.90;;;;;;5053744;28;20448;-84
2023/12/31 02:30:22;;;;;;;1999.90;999.90;;;7.70;99.90;;;;;;5069510;28;20039;-84
2023/12/31 02:32:48;;;;;;;1999.90;999.90;;;8.80;99.90;;;;;;5054683;28;20036;-84
2023/12/31 02:35:13;;;;;;;1999.90;999.90;;;7.70;99.90;;;;;;5053587;28;20055;-84
2023/12/31 02:37:39;;;;;;;1999.90;999.90;;;8.00;99.90;;;;;;5053568;28;20549;-84
2023/12/31 02:40:05;;;;;;;1999.90;999.90;;;8.60;99.90;;;;;;5053989;28;20149;-84
2023/12/31 02:42:31;;;;;;;1999.90;999.90;;;7.70;99.90;;;;;;5052933;28;20060;-84
2023/12/31 02:44:57;;;;;;;1999.90;999.90;;;7.60;99.90;;;;;;5053204;28;20060;-84
2023/12/31 02:47:22;;;;;;;1999.90;999.90;;;7.60;99.90;;;;;;5053475;28;20463;-84
2023/12/31 02:49:48;;;;;;;1999.90;999.90;;;7.60;99.90;;;;;;5053312;28;20401;-84
2023/12/31 02:52:15;;;;;;;1999.90;999.90;;;7.60;99.90;;;;;;5053762;28;20111;-84
2023/12/31 02:54:41;;;;;;;1999.90;999.90;;;7.60;99.90;;;;;;5052890;28;20044;-84
2023/12/31 02:57:07;;;;;;;1999.90;999.90;;;7.60;99.90;;;;;;5053773;28;20028;-84
2023/12/31 02:59:35;;;;;;;1999.90;999.90;;;7.50;99.90;;;;;;5053503;28;20044;-84
2023/12/31 03:02:02;;;;;;;1999.90;999.90;;;7.50;99.90;;;;;;5067184;28;20121;-84
2023/12/31 03:04:27;;;;;;;1999.90;999.90;;;7.50;99.90;;;;;;5054401;28;20107;-84
2023/12/31 03:06:53;;;;;;;1999.90;999.90;;;7.50;99.90;;;;;;5071940;28;20084;-83
2023/12/31 03:09:23;;;;;;;1999.90;999.90;;;7.50;99.90;;;;;;5056484;28;20330;-84
2023/12/31 03:11:51;;;;;;;1999.90;999.90;;;7.50;99.90;;;;;;5058955;28;20131;-84
2023/12/31 03:14:17;;;;;;;1999.90;999.90;;;8.30;99.90;;;;;;5052055;28;20119;-83
2023/12/31 03:16:46;;;;;;;1999.90;999.90;;;7.50;99.90;;;;;;5057656;28;20128;-83
2023/12/31 03:19:16;;;;;;;1999.90;999.90;;;7.50;99.90;;;;;;5055521;28;20054;-83
2023/12/31 03:21:42;;;;;;;1999.90;999.90;;;7.60;99.90;;;;;;5058384;28;20123;-83
2023/12/31 03:24:08;;;;;;;1999.90;999.90;;;7.80;99.90;;;;;;5075973;28;20060;-83
2023/12/31 03:26:34;;;;;;;1999.90;999.90;;;7.50;99.90;;;;;;5059703;28;20032;-83
2023/12/31 03:29:01;;;;;;;1999.90;999.90;;;7.50;99.90;;;;;;5070505;28;20101;-84
2023/12/31 03:31:26;;;;;;;1999.90;999.90;;;7.50;99.90;;;;;;5062394;28;20120;-84
2023/12/31 03:33:52;;;;;;;1999.90;999.90;;;8.30;99.90;;;;;;5069860;28;20086;-83
2023/12/31 03:36:18;;;;;;;1999.90;999.90;;;7.60;99.90;;;;;;5060716;28;20043;-84
2023/12/31 03:38:43;;;;;;;1999.90;999.90;;;7.60;99.90;;;;;;5057574;28;20044;-84
2023/12/31 03:41:09;;;;;;;1999.90;999.90;;;8.00;99.90;;;;;;5057699;28;20029;-84
2023/12/31 03:43:35;;;;;;;1999.90;999.90;;;7.80;99.90;;;;;;5056537;28;20044;-84
2023/12/31 03:46:00;;;;;;;1999.90;999.90;;;7.80;99.90;;;;;;5073174;28;20044;-84
2023/12/31 03:48:26;;;;;;;1999.90;999.90;;;8.10;99.90;;;;;;5056506;28;20039;-84
2023/12/31 03:50:52;;;;;;;1999.90;999.90;;;8.00;99.90;;;;;;5074604;28;20115;-84
2023/12/31 03:53:18;;;;;;;1999.90;999.90;;;7.60;99.90;;;;;;5057696;28;20077;-84
2023/12/31 03:55:44;;;;;;;1999.90;999.90;;;7.90;99.90;;;;;;5056742;28;20036;-84
2023/12/31 03:58:09;;;;;;;1999.90;999.90;;;7.40;99.90;;;;;;5056598;28;20036;-84
2023/12/31 04:00:35;;;;;;;1999.90;999.90;;;7.40;99.90;;;;;;5056730;28;20186;-84
2023/12/31 04:03:02;;;;;;;1999.90;999.90;;;8.20;99.90;;;;;;5073439;28;20037;-84
2023/12/31 04:05:27;;;;;;;1999.90;999.90;;;7.30;99.90;;;;;;5055664;28;20517;-84
2023/12/31 04:07:53;;;;;;;1999.90;999.90;;;7.30;99.90;;;;;;5056845;28;20032;-84
2023/12/31 04:10:19;;;;;;;1999.90;999.90;;;8.20;99.90;;;;;;5073308;28;20457;-84
2023/12/31 04:12:44;;;;;;;1999.90;999.90;;;8.30;99.90;;;;;;5057358;28;20111;-84
2023/12/31 04:15:10;;;;;;;1999.90;999.90;;;7.30;99.90;;;;;;5072827;28;20047;-84
2023/12/31 04:17:35;;;;;;;1999.90;999.90;;;7.30;99.90;;;;;;5070669;28;20044;-84
2023/12/31 04:20:02;;;;;;;1999.90;999.90;;;7.20;99.90;;;;;;5055439;28;20515;-84
2023/12/31 04:22:28;;;;;;;1999.90;999.90;;;7.20;99.90;;;;;;5055816;28;20037;-84
2023/12/31 04:24:54;;;;;;;1999.90;999.90;;;7.20;99.90;;;;;;5069117;28;20086;-83
2023/12/31 04:27:20;;;;;;;1999.90;999.90;;;7.20;99.90;;;;;;5055559;28;20047;-83
2023/12/31 04:29:45;;;;;;;1999.90;999.90;;;7.20;99.90;;;;;;5056556;28;20040;-84
2023/12/31 04:32:12;;;;;;;1999.90;999.90;;;7.30;99.90;;;;;;5072566;28;20064;-84
2023/12/31 04:34:38;;;;;;;1999.90;999.90;;;7.30;99.90;;;;;;5055647;28;20535;-84
2023/12/31 04:37:03;;;;;;;1999.90;999.90;;;7.30;99.90;;;;;;5072804;28;20075;-84
2023/12/31 04:39:29;;;;;;;1999.90;999.90;;;7.30;99.90;;;;;;5072688;28;20036;-84
2023/12/31 04:41:55;;;;;;;1999.90;999.90;;;7.30;99.90;;;;;;5056494;28;20504;-84
2023/12/31 04:44:21;;;;;;;1999.90;999.90;;;7.30;99.90;;;;;;5072420;28;20032;-84
2023/12/31 04:46:47;;;;;;;1999.90;999.90;;;7.40;99.90;;;;;;5055797;28;20511;-84
2023/12/31 04:49:16;;;;;;;1999.90;999.90;;;8.20;99.90;;;;;;5056295;28;20048;-84
2023/12/31 04:51:42;;;;;;;1999.90;999.90;;;7.90;99.90;;;;;;5072594;28;20082;-83
2023/12/31 04:54:08;;;;;;;1999.90;999.90;;;7.40;99.90;;;;;;5072227;28;20044;-84
2023/12/31 04:56:33;;;;;;;1999.90;999.90;;;8.30;99.90;;;;;;5069569;28;20064;-84
2023/12/31 04:59:00;;;;;;;1999.90;999.90;;;8.10;99.90;;;;;;5055521;28;20093;-84
2023/12/31 05:01:31;;;;;;;1999.90;999.90;;;8.10;99.90;;;;;;5055462;28;20028;-84
2023/12/31 05:03:58;;;;;;;1999.90;999.90;;;8.40;99.90;;;;;;5055446;28;20032;-84
2023/12/31 05:06:25;;;;;;;1999.90;999.90;;;7.40;99.90;;;;;;5055158;28;20040;-84
2023/12/31 05:08:51;;;;;;;1999.90;999.90;;;7.50;99.90;;;;;;5055428;28;20036;-84
2023/12/31 05:11:17;;;;;;;1999.90;999.90;;;8.40;99.90;;;;;;5055294;28;20098;-84
2023/12/31 05:13:44;;;;;;;1999.90;999.90;;;7.50;99.90;;;;;;5055640;28;20036;-84
2023/12/31 05:16:14;;;;;;;1999.90;999.90;;;7.50;99.90;;;;;;5054376;28;20044;-84
2023/12/31 05:18:46;;;;;;;1999.90;999.90;;;7.90;99.90;;;;;;5055349;28;20036;-84
2023/12/31 05:21:12;;;;;;;1999.90;999.90;;;7.60;99.90;;;;;;5055458;28;20064;-83
2023/12/31 05:23:39;;;;;;;1999.90;999.90;;;7.60;99.90;;;;;;5054588;28;20041;-83
2023/12/31 05:26:04;;;;;;;1999.90;999.90;;;7.60;99.90;;;;;;5072857;28;20039;-84
2023/12/31 05:28:30;;;;;;;1999.90;999.90;;;7.60;99.90;;;;;;5071601;28;20041;-84
2023/12/31 05:30:56;;;;;;;1999.90;999.90;;;8.30;99.90;;;;;;5075437;28;20033;-84
2023/12/31 05:33:24;;;;;;;1999.90;999.90;;;7.60;99.90;;;;;;5073924;28;20028;-84
2023/12/31 05:35:50;;;;;;;1999.90;999.90;;;7.60;99.90;;;;;;5064025;28;20517;-84
2023/12/31 05:38:16;;;;;;;1999.90;999.90;;;7.60;99.90;;;;;;5081143;28;20052;-84
2023/12/31 05:40:42;;;;;;;1999.90;999.90;;;7.70;99.90;;;;;;5062264;28;20036;-84
2023/12/31 05:43:08;;;;;;;1999.90;999.90;;;7.60;99.90;;;;;;5057900;28;20065;-84
2023/12/31 05:45:33;;;;;;;1999.90;999.90;;;7.80;99.90;;;;;;5054550;28;20083;-84
2023/12/31 05:47:59;;;;;;;1999.90;999.90;;;8.10;99.90;;;;;;5070267;28;20040;-84
2023/12/31 05:50:25;;;;;;;1999.90;999.90;;;7.60;99.90;;;;;;5054453;28;20032;-84
2023/12/31 05:52:50;;;;;;;1999.90;999.90;;;7.60;99.90;;;;;;5055067;28;20070;-84
2023/12/31 05:55:16;;;;;;;1999.90;999.90;;;8.20;99.90;;;;;;5053965;28;20094;-84
2023/12/31 05:57:43;;;;;;;1999.90;999.90;;;7.60;99.90;;;;;;5054228;28;20102;-84
2023/12/31 06:00:09;;;;;;;1999.90;999.90;;;7.60;99.90;;;;;;5070936;28;20036;-83
2023/12/31 06:02:35;;;;;;;1999.90;999.90;;;7.60;99.90;;;;;;5052950;28;20040;-84
2023/12/31 06:05:02;;;;;;;1999.90;999.90;;;8.60;99.90;;;;;;5054006;28;20121;-84
2023/12/31 06:07:27;;;;;;;1999.90;999.90;;;7.60;99.90;;;;;;5056088;28;20069;-84
2023/12/31 06:09:53;;;;;;;1999.90;999.90;;;8.10;99.90;;;;;;5076179;28;20068;-83
2023/12/31 06:12:19;;;;;;;1999.90;999.90;;;7.60;99.90;;;;;;5059434;28;20062;-84
2023/12/31 06:14:45;;;;;;;1999.90;999.90;;;7.60;99.90;;;;;;5059520;28;20446;-84
2023/12/31 06:17:10;;;;;;;1999.90;999.90;;;7.60;99.90;;;;;;5076581;28;20060;-83
2023/12/31 06:19:56;;;;;;;1999.90;999.90;;;8.10;99.90;;;;;;5060275;28;20040;-83
2023/12/31 06:22:22;;;;;;;1999.90;999.90;;;7.60;99.90;;;;;;5058550;28;20068;-83
2023/12/31 06:24:47;;;;;;;1999.90;999.90;;;7.20;99.90;;;;;;5074416;28;20037;-84
2023/12/31 06:27:13;;;;;;;1999.90;999.90;;;7.90;99.90;;;;;;5076766;28;20056;-83
2023/12/31 06:29:39;;;;;;;1999.90;999.90;;;8.50;99.90;;;;;;5059796;28;20141;-84
2023/12/31 06:32:05;;;;;;;1999.90;999.90;;;7.70;99.90;;;;;;5059802;28;20100;-84
2023/12/31 06:34:30;;;;;;;1999.90;999.90;;;7.70;99.90;;;;;;5060035;28;20050;-84
2023/12/31 06:36:56;;;;;;;1999.90;999.90;;;7.70;99.90;;;;;;5060349;28;20119;-84
2023/12/31 06:39:22;;;;;;;1999.90;999.90;;;7.70;99.90;;;;;;5059949;28;20036;-84
2023/12/31 06:41:47;;;;;;;1999.90;999.90;;;8.10;99.90;;;;;;5060868;28;20043;-84
2023/12/31 06:44:14;;;;;;;1999.90;999.90;;;8.20;99.90;;;;;;5075753;28;20036;-84
2023/12/31 06:46:39;;;;;;;1999.90;999.90;;;8.50;99.90;;;;;;5059854;28;20073;-84
2023/12/31 06:49:05;;;;;;;1999.90;999.90;;;7.80;99.90;;;;;;5060596;28;20040;-83
2023/12/31 06:51:31;;;;;;;1999.90;999.90;;;8.00;99.90;;;;;;5059884;28;20038;-84
2023/12/31 06:53:58;;;;;;;1999.90;999.90;;;8.00;99.90;;;;;;5061043;28;20051;-83
2023/12/31 06:56:24;;;;;;;1999.90;999.90;;;8.10;99.90;;;;;;5060269;28;20033;-84
2023/12/31 06:58:50;;;;;;;1999.90;999.90;;;7.90;99.90;;;;;;5060015;28;20033;-84
2023/12/31 07:01:16;;;;;;;1999.90;999.90;;;8.20;99.90;;;;;;5059971;28;20055;-83
2023/12/31 07:03:43;;;;;;;1999.90;999.90;;;8.30;99.90;;;;;;5059905;28;20047;-84
2023/12/31 07:06:09;;;;;;;1999.90;999.90;;;7.90;99.90;;;;;;5059354;28;20040;-84
2023/12/31 07:08:34;;;;;;;1999.90;999.90;;;8.30;99.90;;;;;;5059685;28;20043;-84
2023/12/31 07:11:00;;;;;;;1999.90;999.90;;;7.90;99.90;;;;;;5060044;28;20044;-83
2023/12/31 07:13:26;;;;;;;1999.90;999.90;;;7.90;99.90;;;;;;5059133;28;20028;-83
2023/12/31 07:15:51;;;;;;;1999.90;999.90;;;8.10;99.90;;;;;;5059034;28;20051;-84
2023/12/31 07:18:17;;;;;;;1999.90;999.90;;;8.60;99.90;;;;;;5059646;28;20043;-84
2023/12/31 07:20:43;;;;;;;1999.90;999.90;;;7.90;99.90;;;;;;5059180;28;20382;-83
2023/12/31 07:23:09;;;;;;;1999.90;999.90;;;8.00;99.90;;;;;;5076466;28;20036;-83
2023/12/31 07:25:36;;;;;;;1999.90;999.90;;;7.90;99.90;;;;;;5058877;28;20075;-83
2023/12/31 07:28:01;;;;;;;1999.90;999.90;;;8.00;99.90;;;;;;5059990;28;20073;-84
2023/12/31 07:30:27;;;;;;;1999.90;999.90;;;8.00;99.90;;;;;;5056455;28;20064;-83
2023/12/31 07:32:53;;;;;;;1999.90;999.90;;;8.00;99.90;;;;;;5059500;28;20075;-83
2023/12/31 07:35:18;;;;;;;1999.90;999.90;;;8.50;99.90;;;;;;5058781;28;20036;-83
2023/12/31 07:37:44;;;;;;;1999.90;999.90;;;8.00;99.90;;;;;;5059897;28;20108;-84
2023/12/31 07:40:13;;;;;;;1999.90;999.90;;;8.90;99.90;;;;;;5060164;28;20509;-84
2023/12/31 07:42:39;;;;;;;1999.90;999.90;;;8.00;99.90;;;;;;5061167;28;20044;-84
2023/12/31 07:45:05;;;;;;;1999.90;999.90;;;8.10;99.90;;;;;;5066554;28;20048;-84
2023/12/31 07:47:35;;;;;;;1999.90;999.90;;;8.10;99.90;;;;;;5062905;28;20070;-83
2023/12/31 07:50:02;;;;;;;1999.90;999.90;;;8.10;99.90;;;;;;5067184;28;20043;-84
2023/12/31 07:52:28;;;;;;;1999.90;999.90;;;8.60;99.90;;;;;;5060643;28;20040;-84
2023/12/31 07:54:54;;;;;;;1999.90;999.90;;;8.80;99.90;;;;;;5059457;28;20059;-83
2023/12/31 07:57:19;;;;;;;1999.90;999.90;;;8.20;99.90;;;;;;5062424;28;20063;-84
2023/12/31 07:59:46;;;;;;;1999.90;999.90;;;9.00;99.90;;;;;;5062437;28;20049;-83
2023/12/31 08:02:11;;;;;;;1999.90;999.90;;;8.30;99.90;;;;;;5062319;28;20064;-83
2023/12/31 08:04:37;;;;;;;1999.90;999.90;;;8.70;99.90;;;;;;5078909;28;20052;-84
2023/12/31 08:07:03;;;;;;;1999.90;999.90;;;8.40;99.90;;;;;;5062481;28;20063;-83
2023/12/31 08:09:29;;;;;;;1999.90;999.90;;;8.30;99.90;;;;;;5062470;28;20036;-83
2023/12/31 08:11:55;;;;;;;1999.90;999.90;;;8.30;99.90;;;;;;5062643;28;20043;-84
2023/12/31 08:14:21;;;;;;;1999.90;999.90;;;9.30;99.90;;;;;;5078773;28;20032;-81
2023/12/31 08:16:47;;;;;;;1999.90;999.90;;;9.20;99.90;;;;;;5062499;28;20037;-83
2023/12/31 08:19:13;;;;;;;1999.90;999.90;;;8.80;99.90;;;;;;5062257;28;20043;-84
2023/12/31 08:21:40;;;;;;;1999.90;999.90;;;8.30;99.90;;;;;;5062077;28;20566;-84
2023/12/31 08:24:06;;;;;;;1999.90;999.90;;;8.60;99.90;;;;;;5061619;28;20039;-84
2023/12/31 08:26:32;;;;;;;1999.90;999.90;;;8.40;99.90;;;;;;5061078;28;20185;-84
2023/12/31 08:28:59;;;;;;;1999.90;999.90;;;9.10;99.90;;;;;;5060595;28;20081;-84
2023/12/31 08:31:26;;;;;;;1999.90;999.90;;;9.50;99.90;;;;;;5060614;28;20052;-84
2023/12/31 08:33:54;;;;;;;1999.90;999.90;;;9.50;99.90;;;;;;5061757;28;20033;-84
2023/12/31 08:36:19;;;;;;;1999.90;999.90;;;8.40;99.90;;;;;;5074018;28;20119;-83
2023/12/31 08:38:45;;;;;;;1999.90;999.90;;;8.40;99.90;;;;;;5078449;28;20064;-84
2023/12/31 08:41:11;;;;;;;1999.90;999.90;;;9.40;99.90;;;;;;5060945;28;20033;-84
2023/12/31 08:43:36;;;;;;;1999.90;999.90;;;8.60;99.90;;;;;;5059994;28;20116;-84
2023/12/31 08:46:03;;;;;;;1999.90;999.90;;;9.00;99.90;;;;;;5077963;28;20095;-83
2023/12/31 08:48:29;;;;;;;1999.90;999.90;;;8.50;99.90;;;;;;5077488;28;20350;-83
2023/12/31 08:50:54;;;;;;;1999.90;999.90;;;8.90;99.90;;;;;;5061065;28;20070;-84
2023/12/31 08:53:20;;;;;;;1999.90;999.90;;;8.90;99.90;;;;;;5062104;28;20048;-84
2023/12/31 08:55:48;;;;;;;1999.90;999.90;;;8.80;99.90;;;;;;5061759;28;20041;-83
2023/12/31 08:58:14;;;;;;;1999.90;999.90;;;8.60;99.90;;;;;;5076405;28;20040;-83
2023/12/31 09:00:40;;;;;;;1999.90;999.90;;;9.20;99.90;;;;;;5060591;28;20036;-84
2023/12/31 09:03:05;;;;;;;1999.90;999.90;;;9.80;99.90;;;;;;5057336;28;20028;-84
2023/12/31 09:05:32;;;;;;;1999.90;999.90;;;9.30;99.90;;;;;;5061016;28;20037;-84
2023/12/31 09:07:58;;;;;;;1999.90;999.90;;;8.60;99.90;;;;;;5060419;28;20036;-85
2023/12/31 09:10:24;;;;;;;1999.90;999.90;;;8.70;99.90;;;;;;5061741;28;20298;-83
2023/12/31 09:12:50;;;;;;;1999.90;999.90;;;8.70;99.90;;;;;;5061654;28;20041;-83
2023/12/31 09:15:16;;;;;;;1999.90;999.90;;;8.80;99.90;;;;;;5061445;28;20035;-83
2023/12/31 09:17:41;;;;;;;1999.90;999.90;;;8.70;99.90;;;;;;5061096;28;20039;-83
2023/12/31 09:20:08;;;;;;;1999.90;999.90;;;9.60;99.90;;;;;;5060776;28;20036;-83
2023/12/31 09:22:34;;;;;;;1999.90;999.90;;;8.80;99.90;;;;;;5077682;28;20115;-84
2023/12/31 09:25:00;;;;;;;1999.90;999.90;;;8.70;99.90;;;;;;5060311;28;20457;-84
2023/12/31 09:27:26;;;;;;;1999.90;999.90;;;8.70;99.90;;;;;;5061443;28;20108;-84
2023/12/31 09:29:51;;;;;;;1999.90;999.90;;;8.80;99.90;;;;;;5062511;28;20310;-83
2023/12/31 09:32:17;;;;;;;1999.90;999.90;;;9.10;99.90;;;;;;5061833;28;20029;-84
2023/12/31 09:34:43;;;;;;;1999.90;999.90;;;9.10;99.90;;;;;;5060602;28;20074;-83
2023/12/31 09:37:09;;;;;;;1999.90;999.90;;;8.90;99.90;;;;;;5060075;28;20040;-83
2023/12/31 09:39:35;;;;;;;1999.90;999.90;;;8.80;99.90;;;;;;5060802;28;20048;-84
2023/12/31 09:42:09;;;;;;;1999.90;999.90;;;8.80;99.90;;;;;;5078025;28;20032;-83
2023/12/31 09:44:35;;;;;;;1999.90;999.90;;;8.80;99.90;;;;;;5059880;28;20071;-84
2023/12/31 09:47:09;;;;;;;1999.90;999.90;;;8.80;99.90;;;;;;5059721;28;20067;-83
2023/12/31 09:49:35;;;;;;;;;;;9.30;99.90;;;;;;5060885;28;20074;-84
2023/12/31 09:52:07;;;;;;;1999.90;999.90;;;8.90;99.90;;;;;;5061379;28;19920;-83
2023/12/31 09:54:34;;;;;;;1999.90;999.90;;;8.90;99.90;;;;;;5064250;28;20041;-84
2023/12/31 09:57:00;;;;;;;1999.90;999.90;;;9.90;99.90;;;;;;5061942;28;20060;-84
2023/12/31 09:59:28;;;;;;;1999.90;999.90;;;9.30;99.90;;;;;;5080684;28;20044;-83
2023/12/31 10:02:07;;;;;;;1999.90;999.90;;;8.40;99.90;;;;;;5077783;28;20032;-84
2023/12/31 10:04:33;;;;;;;1999.90;999.90;;;9.30;99.90;;;;;;5049311;28;20481;-83
2023/12/31 10:06:59;;;;;;;1999.90;999.90;;;9.40;99.90;;;;;;5060856;28;20064;-84
2023/12/31 10:09:30;;;;;;;1999.90;999.90;;;9.10;99.90;;;;;;5060849;28;20041;-83
2023/12/31 10:11:56;;;;;;;1999.90;999.90;;;9.90;99.90;;;;;;5060645;28;20040;-84
2023/12/31 10:14:23;;;;;;;1999.90;999.90;;;9.20;99.90;;;;;;5059571;28;20032;-83
2023/12/31 10:16:48;;;;;;;1999.90;999.90;;;9.80;99.90;;;;;;5076204;28;20113;-84
2023/12/31 10:19:14;;;;;;;1999.90;999.90;;;10.10;99.90;;;;;;5059473;28;20036;-83
2023/12/31 10:21:44;;;;;;;1999.90;999.90;;;9.80;99.90;;;;;;5058882;28;20518;-84
2023/12/31 10:24:10;;;;;;;1999.90;999.90;;;8.90;99.90;;;;;;5059605;28;20540;-84
2023/12/31 10:26:36;;;;;;;1999.90;999.90;;;9.40;99.90;;;;;;5059673;28;20040;-83
2023/12/31 10:29:04;;;;;;;1999.90;999.90;;;9.60;99.90;;;;;;5060080;28;20060;-84
2023/12/31 10:31:30;;;;;;;1999.90;999.90;;;9.30;99.90;;;;;;5059690;28;20040;-84
2023/12/31 10:33:55;;;;;;;1999.90;999.90;;;9.90;99.90;;;;;;5057673;28;20051;-84
2023/12/31 10:36:23;;;;;;;1999.90;999.90;;;9.50;99.90;;;;;;5075617;28;20040;-84
2023/12/31 10:38:50;;;;;;;1999.90;999.90;;;9.70;99.90;;;;;;5059613;28;20032;-84
2023/12/31 10:41:20;;;;;;;1999.90;999.90;;;9.50;99.90;;;;;;5059063;28;20039;-84
2023/12/31 10:43:49;;;;;;;1999.90;999.90;;;10.00;99.90;;;;;;5058013;28;20029;-84
2023/12/31 10:46:17;;;;;;;1999.90;999.90;;;9.60;99.90;;;;;;5051260;28;20043;-84
2023/12/31 10:48:56;;;;;;;1999.90;999.90;;;10.10;99.90;;;;;;5075193;28;20332;-84
2023/12/31 10:51:23;;;;;;;1999.90;999.90;;;9.70;99.90;;;;;;5056485;28;20044;-84
2023/12/31 10:53:57;;;;;;;1999.90;999.90;;;9.90;99.90;;;;;;5059145;28;20096;-84
2023/12/31 10:56:24;;;;;;;1999.90;999.90;;;9.90;99.90;;;;;;5072449;28;20466;-84
2023/12/31 10:58:58;;;;;;;1999.90;999.90;;;9.70;99.90;;;;;;5071934;28;20044;-84
2023/12/31 11:01:25;;;;;;;1999.90;999.90;;;9.70;99.90;;;;;;5055272;28;20397;-84
2023/12/31 11:03:56;;;;;;;1999.90;999.90;;;10.80;99.90;;;;;;5058636;28;20039;-84
2023/12/31 11:06:23;;;;;;;1999.90;999.90;;;10.90;99.90;;;;;;5068026;28;20040;-84
2023/12/31 11:08:49;;;;;;;1999.90;999.90;;;10.00;99.90;;;;;;5060195;28;20047;-83
2023/12/31 11:11:16;;;;;;;1999.90;999.90;;;10.20;99.90;;;;;;5061063;28;20040;-84
2023/12/31 11:13:51;;;;;;;1999.90;999.90;;;10.00;99.90;;;;;;5060941;28;20037;-83
2023/12/31 11:16:58;;;;;;;1999.90;999.90;;;10.00;99.90;;;;;;5059937;28;20541;-83
2023/12/31 11:19:42;;;;;;;1999.90;999.90;;;10.00;99.90;;;;;;5059812;28;20139;-83
2023/12/31 11:22:08;;;;;;;;;;;9.90;99.90;;;;;;5074439;28;20043;-83
2023/12/31 11:24:33;;;;;;;1999.90;999.90;;;9.80;99.90;;;;;;5059328;28;20011;-84
2023/12/31 11:27:19;;;;;;;1999.90;999.90;;;10.00;99.90;;;;;;5076636;28;20047;-83
2023/12/31 11:29:46;;;;;;;1999.90;999.90;;;9.60;99.90;;;;;;5058949;28;20565;-83
2023/12/31 11:32:11;;;;;;;1999.90;999.90;;;10.30;99.90;;;;;;5064368;28;20119;-84
2023/12/31 11:34:40;;;;;;;1999.90;999.90;;;9.50;99.90;;;;;;5063602;28;20072;-84
2023/12/31 11:37:09;;;;;;;1999.90;999.90;;;9.40;99.90;;;;;;5063558;28;20086;-83
2023/12/31 11:39:35;;;;;;;1999.90;999.90;;;9.30;99.90;;;;;;5062720;28;20040;-83
2023/12/31 11:42:09;;;;;;;1999.90;999.90;;;9.70;99.90;;;;;;5079958;28;20092;-83
2023/12/31 11:44:46;;;;;;;1999.90;999.90;;;9.20;99.90;;;;;;5062285;28;20059;-82
2023/12/31 11:47:20;;;;;;;1999.90;999.90;;;9.10;99.90;;;;;;5062362;28;20033;-81
2023/12/31 11:49:50;;;;;;;1999.90;999.90;;;9.30;99.90;;;;;;5061766;28;20032;-81
2023/12/31 11:52:19;;;;;;;1999.90;999.90;;;9.00;99.90;;;;;;5062974;28;20037;-82
2023/12/31 11:54:44;;;;;;;1999.90;999.90;;;8.90;99.90;;;;;;5060670;28;20149;-81
2023/12/31 11:57:11;;;;;;;1999.90;999.90;;;9.40;99.90;;;;;;5061635;28;20048;-81
2023/12/31 11:59:38;;;;;;;1999.90;999.90;;;8.70;99.90;;;;;;5061993;28;20045;-82
2023/12/31 12:02:06;;;;;;;1999.90;999.90;;;9.00;99.90;;;;;;5078388;28;20048;-82
2023/12/31 12:04:32;;;;;;;1999.90;999.90;;;8.90;99.90;;;;;;5066013;28;20492;-82
2023/12/31 12:06:58;;;;;;;1999.90;999.90;;;8.90;99.90;;;;;;5068753;28;20036;-82